Franklin, AL (36444)

7:48 PM CDT on June 03, 2015 (GMT -0500)
KALFRISC2 | | Change Station
CLOSE
Current Station
Personal Weather Station
Location: Perdue Hill, AL
Elevation: 70 ft
Nearby Weather Stations

Elev 70 ft 31.58 °N, 87.49 °W | Updated 3 minutes ago

Clear
Clear
81.9 °F
Feels Like 85 °F
N
2.0
Wind Variable Wind from North
Gusts 3.0 mph

Today
High -- | Low -- °F
--% Chance of Precip.
Yesterday
High -- | Low -- °F
Precip. -- in
5:44 AM 7:51 PM
Full, 98% visible
Pressure 29.89 in
Visibility 10.0 miles
Clouds Clear
Heat Index 85 °F
Dew Point 69 °F
Humidity 66%
Rainfall 0.00 in
Snow Depth Not available.
UV 1 out of 12
Pollen 4.40 out of 12
Air Quality Not available.
Flu Activity Sporadic
METAR KGZH 032353Z AUTO 34004KT 10SM CLR 28/20 A2990 RMK AO2 SLP120 T02830200 10311 20283 55000

More Conditions Fewer Conditions

Pressure 29.89 in
Visibility 10.0 miles
Clouds Clear
Heat Index 85 °F
Dew Point 69 °F
Humidity 66%
Rainfall 0.00 in
Snow Depth Not available.
UV 1 out of 12
Pollen 4.40 out of 12
Air Quality Not available.
Flu Activity Sporadic
METAR KGZH 032353Z AUTO 34004KT 10SM CLR 28/20 A2990 RMK AO2 SLP120 T02830200 10311 20283 55000

More Conditions Fewer Conditions

10-Day Weather Forecast

×

Almanac

Astronomy

Jun. 03, 2015 Rise Set
Actual Time
Civil Twilight
Nautical Twilight
Astronomical Twilight
Moon
Length of Visible Light
Length of Day
Tomorrow will be .
, % of the Moon is Illuminated

Today's Extremes

State Highs State Lows

Community

WunderPhotos

Upload Photos

1,826,325 photos uploaded!

WunderBlogs® & News

Nearby

Air Quality

  Air Quality AQ Index Pollutant
Not available.

Snow Depth

Station Depth Elevation

Earthquake Activity

City Distance Mag. Time & Date
Minimum magnitude displayed is 2.5.

Coastal Water Temperatures

Place Temperature

Stations

Nearby Weather Stations

Station Location Temp. Windchill Dew Point Humidity Wind Precip. Elev Updated Type